sensor_id;sensor_type;location;lat;lon;timestamp;P1;durP1;ratioP1;P2;durP2;ratioP2
56039;SDS011;43937;41.366;2.072;2022-10-22T00:01:56;7.25;;;2.28;;
56039;SDS011;43937;41.366;2.072;2022-10-22T00:04:21;12.63;;;2.45;;
56039;SDS011;43937;41.366;2.072;2022-10-22T00:06:46;4.60;;;2.30;;
56039;SDS011;43937;41.366;2.072;2022-10-22T00:09:12;3.60;;;2.40;;
56039;SDS011;43937;41.366;2.072;2022-10-22T00:11:38;9.05;;;3.90;;
56039;SDS011;43937;41.366;2.072;2022-10-22T00:14:04;5.20;;;2.97;;
56039;SDS011;43937;41.366;2.072;2022-10-22T00:16:30;5.55;;;2.85;;
56039;SDS011;43937;41.366;2.072;2022-10-22T00:18:55;5.93;;;2.50;;
56039;SDS011;43937;41.366;2.072;2022-10-22T00:21:21;3.50;;;2.50;;
56039;SDS011;43937;41.366;2.072;2022-10-22T00:23:46;4.18;;;2.28;;
56039;SDS011;43937;41.366;2.072;2022-10-22T00:26:12;2.53;;;1.52;;
56039;SDS011;43937;41.366;2.072;2022-10-22T00:28:37;1.50;;;1.20;;
56039;SDS011;43937;41.366;2.072;2022-10-22T00:31:03;5.78;;;1.25;;
56039;SDS011;43937;41.366;2.072;2022-10-22T00:33:29;1.95;;;0.75;;
56039;SDS011;43937;41.366;2.072;2022-10-22T00:35:55;1.40;;;1.10;;
56039;SDS011;43937;41.366;2.072;2022-10-22T00:38:20;5.47;;;1.23;;
56039;SDS011;43937;41.366;2.072;2022-10-22T00:40:46;5.35;;;1.75;;
56039;SDS011;43937;41.366;2.072;2022-10-22T00:43:12;2.05;;;0.63;;
56039;SDS011;43937;41.366;2.072;2022-10-22T00:45:39;0.80;;;0.73;;
56039;SDS011;43937;41.366;2.072;2022-10-22T00:48:09;1.75;;;0.88;;
56039;SDS011;43937;41.366;2.072;2022-10-22T00:50:46;2.45;;;1.10;;
56039;SDS011;43937;41.366;2.072;2022-10-22T00:53:13;1.40;;;1.20;;
56039;SDS011;43937;41.366;2.072;2022-10-22T00:55:45;1.95;;;0.68;;
56039;SDS011;43937;41.366;2.072;2022-10-22T00:58:13;2.55;;;1.15;;
56039;SDS011;43937;41.366;2.072;2022-10-22T01:00:39;1.10;;;0.93;;
56039;SDS011;43937;41.366;2.072;2022-10-22T01:03:05;2.20;;;0.80;;
56039;SDS011;43937;41.366;2.072;2022-10-22T01:05:32;2.70;;;1.30;;
56039;SDS011;43937;41.366;2.072;2022-10-22T01:08:10;4.93;;;1.00;;
56039;SDS011;43937;41.366;2.072;2022-10-22T01:13:43;1.77;;;1.13;;
56039;SDS011;43937;41.366;2.072;2022-10-22T01:16:23;2.15;;;1.02;;
56039;SDS011;43937;41.366;2.072;2022-10-22T01:19:00;2.95;;;0.95;;
56039;SDS011;43937;41.366;2.072;2022-10-22T01:21:55;0.57;;;0.57;;
56039;SDS011;43937;41.366;2.072;2022-10-22T01:29:42;1.23;;;0.70;;
56039;SDS011;43937;41.366;2.072;2022-10-22T01:32:14;4.00;;;0.98;;
56039;SDS011;43937;41.366;2.072;2022-10-22T01:34:43;0.43;;;0.43;;
56039;SDS011;43937;41.366;2.072;2022-10-22T01:37:13;1.95;;;0.95;;
56039;SDS011;43937;41.366;2.072;2022-10-22T01:39:41;6.03;;;0.73;;
56039;SDS011;43937;41.366;2.072;2022-10-22T01:42:10;1.27;;;0.63;;
56039;SDS011;43937;41.366;2.072;2022-10-22T01:44:36;7.18;;;1.65;;
56039;SDS011;43937;41.366;2.072;2022-10-22T01:55:26;0.82;;;0.82;;
56039;SDS011;43937;41.366;2.072;2022-10-22T02:00:35;2.42;;;0.88;;
56039;SDS011;43937;41.366;2.072;2022-10-22T02:03:05;2.42;;;0.73;;
56039;SDS011;43937;41.366;2.072;2022-10-22T02:05:35;2.03;;;1.00;;
56039;SDS011;43937;41.366;2.072;2022-10-22T02:08:14;2.40;;;1.25;;
56039;SDS011;43937;41.366;2.072;2022-10-22T02:10:44;2.25;;;1.13;;
56039;SDS011;43937;41.366;2.072;2022-10-22T02:13:13;8.07;;;1.77;;
56039;SDS011;43937;41.366;2.072;2022-10-22T02:15:42;3.25;;;0.98;;
56039;SDS011;43937;41.366;2.072;2022-10-22T02:18:10;1.10;;;1.00;;
56039;SDS011;43937;41.366;2.072;2022-10-22T02:20:37;2.22;;;1.25;;
56039;SDS011;43937;41.366;2.072;2022-10-22T02:23:06;2.67;;;1.40;;
56039;SDS011;43937;41.366;2.072;2022-10-22T02:25:34;1.67;;;1.02;;
56039;SDS011;43937;41.366;2.072;2022-10-22T02:30:39;2.45;;;1.40;;
56039;SDS011;43937;41.366;2.072;2022-10-22T02:33:10;1.65;;;1.27;;
56039;SDS011;43937;41.366;2.072;2022-10-22T02:35:40;1.95;;;1.08;;
56039;SDS011;43937;41.366;2.072;2022-10-22T02:38:07;1.80;;;1.13;;
56039;SDS011;43937;41.366;2.072;2022-10-22T02:40:34;2.58;;;1.10;;
56039;SDS011;43937;41.366;2.072;2022-10-22T02:42:59;3.60;;;1.48;;
56039;SDS011;43937;41.366;2.072;2022-10-22T02:45:29;2.00;;;1.20;;
56039;SDS011;43937;41.366;2.072;2022-10-22T02:47:55;1.88;;;0.82;;
56039;SDS011;43937;41.366;2.072;2022-10-22T02:50:20;3.55;;;1.23;;
56039;SDS011;43937;41.366;2.072;2022-10-22T02:52:46;3.67;;;1.58;;
56039;SDS011;43937;41.366;2.072;2022-10-22T02:55:11;2.67;;;1.25;;
56039;SDS011;43937;41.366;2.072;2022-10-22T02:57:36;3.00;;;1.52;;
56039;SDS011;43937;41.366;2.072;2022-10-22T03:00:03;2.83;;;1.45;;
56039;SDS011;43937;41.366;2.072;2022-10-22T03:02:30;2.83;;;1.40;;
56039;SDS011;43937;41.366;2.072;2022-10-22T03:04:55;2.63;;;1.48;;
56039;SDS011;43937;41.366;2.072;2022-10-22T03:07:21;4.45;;;1.60;;
56039;SDS011;43937;41.366;2.072;2022-10-22T03:09:46;4.50;;;1.58;;
56039;SDS011;43937;41.366;2.072;2022-10-22T03:12:11;1.77;;;0.90;;
56039;SDS011;43937;41.366;2.072;2022-10-22T03:14:37;3.17;;;1.50;;
56039;SDS011;43937;41.366;2.072;2022-10-22T03:17:02;2.40;;;1.35;;
56039;SDS011;43937;41.366;2.072;2022-10-22T03:19:28;5.32;;;1.27;;
56039;SDS011;43937;41.366;2.072;2022-10-22T03:21:58;3.22;;;1.40;;
56039;SDS011;43937;41.366;2.072;2022-10-22T03:24:27;4.50;;;1.42;;
56039;SDS011;43937;41.366;2.072;2022-10-22T03:26:58;2.70;;;1.55;;
56039;SDS011;43937;41.366;2.072;2022-10-22T03:29:24;11.15;;;1.73;;
56039;SDS011;43937;41.366;2.072;2022-10-22T03:31:51;2.00;;;1.33;;
56039;SDS011;43937;41.366;2.072;2022-10-22T03:34:17;2.95;;;1.45;;
56039;SDS011;43937;41.366;2.072;2022-10-22T03:36:43;7.90;;;1.50;;
56039;SDS011;43937;41.366;2.072;2022-10-22T03:39:09;3.30;;;1.33;;
56039;SDS011;43937;41.366;2.072;2022-10-22T03:41:37;1.92;;;1.30;;
56039;SDS011;43937;41.366;2.072;2022-10-22T03:44:03;3.85;;;1.70;;
56039;SDS011;43937;41.366;2.072;2022-10-22T03:46:29;4.88;;;2.00;;
56039;SDS011;43937;41.366;2.072;2022-10-22T03:48:54;2.97;;;1.98;;
56039;SDS011;43937;41.366;2.072;2022-10-22T03:51:20;2.97;;;1.73;;
56039;SDS011;43937;41.366;2.072;2022-10-22T03:53:45;3.30;;;1.60;;
56039;SDS011;43937;41.366;2.072;2022-10-22T03:56:11;3.92;;;1.90;;
56039;SDS011;43937;41.366;2.072;2022-10-22T03:58:38;9.93;;;2.60;;
56039;SDS011;43937;41.366;2.072;2022-10-22T04:01:08;5.90;;;1.98;;
56039;SDS011;43937;41.366;2.072;2022-10-22T04:03:35;3.40;;;1.40;;
56039;SDS011;43937;41.366;2.072;2022-10-22T04:06:04;1.85;;;1.42;;
56039;SDS011;43937;41.366;2.072;2022-10-22T04:08:32;3.20;;;1.77;;
56039;SDS011;43937;41.366;2.072;2022-10-22T04:10:58;2.15;;;1.65;;
56039;SDS011;43937;41.366;2.072;2022-10-22T04:13:23;2.47;;;1.20;;
56039;SDS011;43937;41.366;2.072;2022-10-22T04:15:49;4.07;;;1.50;;
56039;SDS011;43937;41.366;2.072;2022-10-22T04:18:16;2.13;;;1.35;;
56039;SDS011;43937;41.366;2.072;2022-10-22T04:20:44;3.03;;;1.45;;
56039;SDS011;43937;41.366;2.072;2022-10-22T04:23:10;3.15;;;1.55;;
56039;SDS011;43937;41.366;2.072;2022-10-22T04:25:36;1.70;;;0.80;;
56039;SDS011;43937;41.366;2.072;2022-10-22T04:28:04;3.72;;;1.00;;
56039;SDS011;43937;41.366;2.072;2022-10-22T04:31:31;7.70;;;1.70;;
56039;SDS011;43937;41.366;2.072;2022-10-22T04:33:57;4.85;;;1.55;;
56039;SDS011;43937;41.366;2.072;2022-10-22T04:36:24;6.00;;;1.55;;
56039;SDS011;43937;41.366;2.072;2022-10-22T04:38:53;6.28;;;1.20;;
56039;SDS011;43937;41.366;2.072;2022-10-22T04:41:25;2.15;;;1.40;;
56039;SDS011;43937;41.366;2.072;2022-10-22T04:45:59;0.80;;;0.52;;
56039;SDS011;43937;41.366;2.072;2022-10-22T04:48:25;2.72;;;1.38;;
56039;SDS011;43937;41.366;2.072;2022-10-22T04:50:51;3.38;;;1.65;;
56039;SDS011;43937;41.366;2.072;2022-10-22T04:53:16;4.30;;;0.85;;
56039;SDS011;43937;41.366;2.072;2022-10-22T04:55:41;2.15;;;1.00;;
56039;SDS011;43937;41.366;2.072;2022-10-22T04:58:07;1.75;;;1.20;;
56039;SDS011;43937;41.366;2.072;2022-10-22T05:00:32;1.88;;;0.95;;
56039;SDS011;43937;41.366;2.072;2022-10-22T05:02:58;1.13;;;0.90;;
56039;SDS011;43937;41.366;2.072;2022-10-22T05:05:23;3.35;;;1.33;;
56039;SDS011;43937;41.366;2.072;2022-10-22T05:07:49;1.55;;;1.10;;
56039;SDS011;43937;41.366;2.072;2022-10-22T05:10:15;5.07;;;1.30;;
56039;SDS011;43937;41.366;2.072;2022-10-22T05:12:41;1.20;;;0.77;;
56039;SDS011;43937;41.366;2.072;2022-10-22T05:15:06;1.65;;;0.75;;
56039;SDS011;43937;41.366;2.072;2022-10-22T05:17:34;2.20;;;1.33;;
56039;SDS011;43937;41.366;2.072;2022-10-22T05:20:01;1.17;;;0.82;;
56039;SDS011;43937;41.366;2.072;2022-10-22T05:22:27;0.70;;;0.70;;
56039;SDS011;43937;41.366;2.072;2022-10-22T05:24:52;1.45;;;0.93;;
56039;SDS011;43937;41.366;2.072;2022-10-22T05:27:18;1.17;;;0.55;;
56039;SDS011;43937;41.366;2.072;2022-10-22T05:29:43;0.82;;;0.60;;
56039;SDS011;43937;41.366;2.072;2022-10-22T05:32:09;1.02;;;0.60;;
56039;SDS011;43937;41.366;2.072;2022-10-22T05:34:34;4.18;;;0.73;;
56039;SDS011;43937;41.366;2.072;2022-10-22T05:37:00;2.63;;;0.80;;
56039;SDS011;43937;41.366;2.072;2022-10-22T05:39:26;1.00;;;0.65;;
56039;SDS011;43937;41.366;2.072;2022-10-22T05:41:51;1.40;;;0.90;;
56039;SDS011;43937;41.366;2.072;2022-10-22T05:44:18;7.43;;;1.25;;
56039;SDS011;43937;41.366;2.072;2022-10-22T05:46:43;1.85;;;1.13;;
56039;SDS011;43937;41.366;2.072;2022-10-22T05:49:12;1.70;;;1.15;;
56039;SDS011;43937;41.366;2.072;2022-10-22T05:51:39;11.25;;;1.90;;
56039;SDS011;43937;41.366;2.072;2022-10-22T05:54:06;1.75;;;1.02;;
56039;SDS011;43937;41.366;2.072;2022-10-22T05:56:32;4.25;;;1.63;;
56039;SDS011;43937;41.366;2.072;2022-10-22T05:58:59;11.13;;;1.75;;
56039;SDS011;43937;41.366;2.072;2022-10-22T06:01:26;2.20;;;1.25;;
56039;SDS011;43937;41.366;2.072;2022-10-22T06:03:57;3.72;;;1.30;;
56039;SDS011;43937;41.366;2.072;2022-10-22T06:06:33;3.70;;;1.70;;
56039;SDS011;43937;41.366;2.072;2022-10-22T06:09:03;5.18;;;1.23;;
56039;SDS011;43937;41.366;2.072;2022-10-22T06:11:29;5.38;;;1.45;;
56039;SDS011;43937;41.366;2.072;2022-10-22T06:13:55;4.88;;;1.65;;
56039;SDS011;43937;41.366;2.072;2022-10-22T06:16:20;2.55;;;1.30;;
56039;SDS011;43937;41.366;2.072;2022-10-22T06:18:46;3.15;;;1.27;;
56039;SDS011;43937;41.366;2.072;2022-10-22T06:23:13;0.93;;;0.90;;
56039;SDS011;43937;41.366;2.072;2022-10-22T06:25:39;1.83;;;1.02;;
56039;SDS011;43937;41.366;2.072;2022-10-22T06:28:06;0.80;;;0.70;;
56039;SDS011;43937;41.366;2.072;2022-10-22T06:30:32;2.08;;;1.10;;
56039;SDS011;43937;41.366;2.072;2022-10-22T06:32:57;1.73;;;1.10;;
56039;SDS011;43937;41.366;2.072;2022-10-22T06:35:22;5.57;;;1.45;;
56039;SDS011;43937;41.366;2.072;2022-10-22T06:37:48;2.45;;;1.08;;
56039;SDS011;43937;41.366;2.072;2022-10-22T06:40:13;2.15;;;1.75;;
56039;SDS011;43937;41.366;2.072;2022-10-22T06:42:40;3.95;;;1.50;;
56039;SDS011;43937;41.366;2.072;2022-10-22T06:45:06;1.63;;;1.23;;
56039;SDS011;43937;41.366;2.072;2022-10-22T06:47:32;1.35;;;0.73;;
56039;SDS011;43937;41.366;2.072;2022-10-22T06:49:57;2.33;;;1.50;;
56039;SDS011;43937;41.366;2.072;2022-10-22T06:52:23;2.25;;;1.05;;
56039;SDS011;43937;41.366;2.072;2022-10-22T06:54:48;1.38;;;0.88;;
56039;SDS011;43937;41.366;2.072;2022-10-22T06:57:14;2.55;;;0.90;;
56039;SDS011;43937;41.366;2.072;2022-10-22T06:59:39;1.55;;;1.00;;
56039;SDS011;43937;41.366;2.072;2022-10-22T07:02:05;1.08;;;0.98;;
56039;SDS011;43937;41.366;2.072;2022-10-22T07:04:30;3.05;;;1.42;;
56039;SDS011;43937;41.366;2.072;2022-10-22T07:06:56;7.47;;;4.28;;
56039;SDS011;43937;41.366;2.072;2022-10-22T07:09:21;13.13;;;6.93;;
56039;SDS011;43937;41.366;2.072;2022-10-22T07:11:47;20.65;;;10.32;;
56039;SDS011;43937;41.366;2.072;2022-10-22T07:14:12;16.27;;;10.85;;
56039;SDS011;43937;41.366;2.072;2022-10-22T07:16:38;27.77;;;13.93;;
56039;SDS011;43937;41.366;2.072;2022-10-22T07:19:07;22.02;;;14.93;;
56039;SDS011;43937;41.366;2.072;2022-10-22T07:21:32;20.73;;;13.13;;
56039;SDS011;43937;41.366;2.072;2022-10-22T07:23:58;24.13;;;11.77;;
56039;SDS011;43937;41.366;2.072;2022-10-22T07:26:24;17.15;;;10.70;;
56039;SDS011;43937;41.366;2.072;2022-10-22T07:28:51;15.75;;;9.55;;
56039;SDS011;43937;41.366;2.072;2022-10-22T07:31:16;22.48;;;9.98;;
56039;SDS011;43937;41.366;2.072;2022-10-22T07:33:43;18.63;;;8.45;;
56039;SDS011;43937;41.366;2.072;2022-10-22T07:38:17;18.52;;;8.10;;
56039;SDS011;43937;41.366;2.072;2022-10-22T07:40:43;25.65;;;11.38;;
56039;SDS011;43937;41.366;2.072;2022-10-22T07:43:08;22.58;;;10.55;;
56039;SDS011;43937;41.366;2.072;2022-10-22T07:45:34;23.58;;;11.32;;
56039;SDS011;43937;41.366;2.072;2022-10-22T07:47:59;18.52;;;9.90;;
56039;SDS011;43937;41.366;2.072;2022-10-22T07:50:25;17.50;;;11.50;;
56039;SDS011;43937;41.366;2.072;2022-10-22T07:52:51;18.15;;;11.55;;
56039;SDS011;43937;41.366;2.072;2022-10-22T07:55:16;20.73;;;10.10;;
56039;SDS011;43937;41.366;2.072;2022-10-22T07:57:42;14.23;;;9.10;;
56039;SDS011;43937;41.366;2.072;2022-10-22T08:00:54;12.68;;;8.65;;
56039;SDS011;43937;41.366;2.072;2022-10-22T08:03:21;10.85;;;6.82;;
56039;SDS011;43937;41.366;2.072;2022-10-22T08:05:46;9.10;;;5.30;;
56039;SDS011;43937;41.366;2.072;2022-10-22T08:08:12;9.82;;;5.07;;
56039;SDS011;43937;41.366;2.072;2022-10-22T08:10:39;9.25;;;4.25;;
56039;SDS011;43937;41.366;2.072;2022-10-22T08:13:05;7.88;;;3.30;;
56039;SDS011;43937;41.366;2.072;2022-10-22T08:15:31;4.70;;;2.63;;
56039;SDS011;43937;41.366;2.072;2022-10-22T08:17:56;12.70;;;3.17;;
56039;SDS011;43937;41.366;2.072;2022-10-22T08:20:22;4.55;;;2.67;;
56039;SDS011;43937;41.366;2.072;2022-10-22T08:22:47;6.20;;;3.13;;
56039;SDS011;43937;41.366;2.072;2022-10-22T08:25:13;8.82;;;3.22;;
56039;SDS011;43937;41.366;2.072;2022-10-22T08:27:39;6.07;;;3.95;;
56039;SDS011;43937;41.366;2.072;2022-10-22T08:30:05;11.20;;;4.65;;
56039;SDS011;43937;41.366;2.072;2022-10-22T08:32:32;12.50;;;4.88;;
56039;SDS011;43937;41.366;2.072;2022-10-22T08:34:57;8.60;;;5.93;;
56039;SDS011;43937;41.366;2.072;2022-10-22T08:37:22;9.55;;;5.38;;
56039;SDS011;43937;41.366;2.072;2022-10-22T08:39:48;6.38;;;3.97;;
56039;SDS011;43937;41.366;2.072;2022-10-22T08:45:20;6.60;;;3.58;;
56039;SDS011;43937;41.366;2.072;2022-10-22T08:51:12;3.60;;;2.50;;
56039;SDS011;43937;41.366;2.072;2022-10-22T08:56:14;1.73;;;1.40;;
56039;SDS011;43937;41.366;2.072;2022-10-22T09:06:11;7.20;;;1.13;;
56039;SDS011;43937;41.366;2.072;2022-10-22T09:08:51;2.55;;;1.02;;
56039;SDS011;43937;41.366;2.072;2022-10-22T09:11:26;3.45;;;1.33;;
56039;SDS011;43937;41.366;2.072;2022-10-22T09:14:02;2.35;;;0.93;;
56039;SDS011;43937;41.366;2.072;2022-10-22T09:19:13;2.60;;;0.90;;
56039;SDS011;43937;41.366;2.072;2022-10-22T09:24:41;1.33;;;0.57;;
56039;SDS011;43937;41.366;2.072;2022-10-22T09:27:11;1.10;;;0.40;;
56039;SDS011;43937;41.366;2.072;2022-10-22T09:29:37;25.45;;;1.30;;
56039;SDS011;43937;41.366;2.072;2022-10-22T09:32:02;2.75;;;1.13;;
56039;SDS011;43937;41.366;2.072;2022-10-22T09:34:28;0.93;;;0.75;;
56039;SDS011;43937;41.366;2.072;2022-10-22T09:36:58;0.47;;;0.40;;
56039;SDS011;43937;41.366;2.072;2022-10-22T09:39:26;0.80;;;0.50;;
56039;SDS011;43937;41.366;2.072;2022-10-22T09:41:55;0.80;;;0.52;;
56039;SDS011;43937;41.366;2.072;2022-10-22T09:44:21;1.73;;;0.70;;
56039;SDS011;43937;41.366;2.072;2022-10-22T09:46:46;0.75;;;0.57;;
56039;SDS011;43937;41.366;2.072;2022-10-22T09:49:13;2.83;;;0.75;;
56039;SDS011;43937;41.366;2.072;2022-10-22T09:51:49;5.47;;;1.27;;
56039;SDS011;43937;41.366;2.072;2022-10-22T09:54:23;2.03;;;1.30;;
56039;SDS011;43937;41.366;2.072;2022-10-22T09:57:34;1.80;;;0.90;;
56039;SDS011;43937;41.366;2.072;2022-10-22T09:59:38;2.30;;;1.40;;
56039;SDS011;43937;41.366;2.072;2022-10-22T10:04:51;3.50;;;0.93;;
56039;SDS011;43937;41.366;2.072;2022-10-22T10:09:12;1.35;;;0.63;;
56039;SDS011;43937;41.366;2.072;2022-10-22T10:11:58;1.65;;;1.00;;
56039;SDS011;43937;41.366;2.072;2022-10-22T10:19:55;0.75;;;0.75;;
56039;SDS011;43937;41.366;2.072;2022-10-22T10:26:22;1.50;;;1.17;;
56039;SDS011;43937;41.366;2.072;2022-10-22T10:29:14;1.52;;;0.85;;
56039;SDS011;43937;41.366;2.072;2022-10-22T10:39:22;4.05;;;1.00;;
56039;SDS011;43937;41.366;2.072;2022-10-22T10:42:07;6.47;;;1.42;;
56039;SDS011;43937;41.366;2.072;2022-10-22T10:44:44;4.57;;;1.98;;
56039;SDS011;43937;41.366;2.072;2022-10-22T10:56:47;2.13;;;0.70;;
56039;SDS011;43937;41.366;2.072;2022-10-22T11:00:08;2.33;;;1.05;;
56039;SDS011;43937;41.366;2.072;2022-10-22T11:08:19;2.03;;;0.55;;
56039;SDS011;43937;41.366;2.072;2022-10-22T11:10:53;0.95;;;0.38;;
56039;SDS011;43937;41.366;2.072;2022-10-22T11:13:29;0.68;;;0.55;;
56039;SDS011;43937;41.366;2.072;2022-10-22T11:18:50;0.82;;;0.50;;
56039;SDS011;43937;41.366;2.072;2022-10-22T11:21:24;11.73;;;1.40;;
56039;SDS011;43937;41.366;2.072;2022-10-22T11:23:54;1.45;;;0.70;;
56039;SDS011;43937;41.366;2.072;2022-10-22T11:28:33;2.25;;;0.90;;
56039;SDS011;43937;41.366;2.072;2022-10-22T11:31:08;1.75;;;0.50;;
56039;SDS011;43937;41.366;2.072;2022-10-22T11:33:53;3.70;;;0.90;;
56039;SDS011;43937;41.366;2.072;2022-10-22T11:36:31;0.77;;;0.50;;
56039;SDS011;43937;41.366;2.072;2022-10-22T11:38:58;1.20;;;0.45;;
56039;SDS011;43937;41.366;2.072;2022-10-22T11:41:27;1.38;;;0.63;;
56039;SDS011;43937;41.366;2.072;2022-10-22T11:44:09;0.98;;;0.30;;
56039;SDS011;43937;41.366;2.072;2022-10-22T11:46:42;0.55;;;0.40;;
56039;SDS011;43937;41.366;2.072;2022-10-22T11:51:42;1.40;;;1.30;;
56039;SDS011;43937;41.366;2.072;2022-10-22T11:56:56;6.57;;;1.38;;
56039;SDS011;43937;41.366;2.072;2022-10-22T12:02:44;1.48;;;1.00;;
56039;SDS011;43937;41.366;2.072;2022-10-22T12:10:29;1.48;;;1.00;;
56039;SDS011;43937;41.366;2.072;2022-10-22T12:13:21;2.60;;;1.40;;
56039;SDS011;43937;41.366;2.072;2022-10-22T12:15:47;1.55;;;1.08;;
56039;SDS011;43937;41.366;2.072;2022-10-22T12:18:15;1.38;;;1.15;;
56039;SDS011;43937;41.366;2.072;2022-10-22T12:20:41;3.80;;;1.33;;
56039;SDS011;43937;41.366;2.072;2022-10-22T12:23:10;1.00;;;0.82;;
56039;SDS011;43937;41.366;2.072;2022-10-22T12:25:38;1.40;;;0.85;;
56039;SDS011;43937;41.366;2.072;2022-10-22T12:28:03;0.75;;;0.45;;
56039;SDS011;43937;41.366;2.072;2022-10-22T12:30:34;2.88;;;0.70;;
56039;SDS011;43937;41.366;2.072;2022-10-22T12:34:29;0.25;;;0.25;;
56039;SDS011;43937;41.366;2.072;2022-10-22T12:36:54;0.95;;;0.30;;
56039;SDS011;43937;41.366;2.072;2022-10-22T12:39:29;0.95;;;0.60;;
56039;SDS011;43937;41.366;2.072;2022-10-22T12:41:57;1.17;;;0.57;;
56039;SDS011;43937;41.366;2.072;2022-10-22T12:44:22;0.98;;;0.35;;
56039;SDS011;43937;41.366;2.072;2022-10-22T12:46:48;0.43;;;0.30;;
56039;SDS011;43937;41.366;2.072;2022-10-22T12:51:43;0.90;;;0.40;;
56039;SDS011;43937;41.366;2.072;2022-10-22T12:54:13;0.93;;;0.60;;
56039;SDS011;43937;41.366;2.072;2022-10-22T12:59:28;1.75;;;1.23;;
56039;SDS011;43937;41.366;2.072;2022-10-22T13:01:58;1.52;;;0.60;;
56039;SDS011;43937;41.366;2.072;2022-10-22T13:06:51;2.78;;;1.45;;
56039;SDS011;43937;41.366;2.072;2022-10-22T13:09:35;2.33;;;1.83;;
56039;SDS011;43937;41.366;2.072;2022-10-22T13:12:09;5.80;;;1.92;;
56039;SDS011;43937;41.366;2.072;2022-10-22T13:19:35;0.47;;;0.32;;
56039;SDS011;43937;41.366;2.072;2022-10-22T13:25:19;1.70;;;0.60;;
56039;SDS011;43937;41.366;2.072;2022-10-22T13:31:27;1.75;;;0.30;;
56039;SDS011;43937;41.366;2.072;2022-10-22T13:35:56;1.58;;;0.60;;
56039;SDS011;43937;41.366;2.072;2022-10-22T13:38:22;0.50;;;0.30;;
56039;SDS011;43937;41.366;2.072;2022-10-22T13:40:49;0.73;;;0.45;;
56039;SDS011;43937;41.366;2.072;2022-10-22T13:43:15;0.32;;;0.20;;
56039;SDS011;43937;41.366;2.072;2022-10-22T13:45:41;0.38;;;0.30;;
56039;SDS011;43937;41.366;2.072;2022-10-22T13:48:11;0.65;;;0.40;;
56039;SDS011;43937;41.366;2.072;2022-10-22T13:50:39;0.70;;;0.30;;
56039;SDS011;43937;41.366;2.072;2022-10-22T13:53:05;1.25;;;0.17;;
56039;SDS011;43937;41.366;2.072;2022-10-22T13:55:32;1.05;;;0.40;;
56039;SDS011;43937;41.366;2.072;2022-10-22T13:58:16;0.60;;;0.20;;
56039;SDS011;43937;41.366;2.072;2022-10-22T14:00:48;1.25;;;0.43;;
56039;SDS011;43937;41.366;2.072;2022-10-22T14:04:56;0.80;;;0.40;;
56039;SDS011;43937;41.366;2.072;2022-10-22T14:07:27;0.40;;;0.35;;
56039;SDS011;43937;41.366;2.072;2022-10-22T14:09:52;0.20;;;0.20;;
56039;SDS011;43937;41.366;2.072;2022-10-22T14:12:18;0.30;;;0.30;;
56039;SDS011;43937;41.366;2.072;2022-10-22T14:14:43;0.40;;;0.20;;
56039;SDS011;43937;41.366;2.072;2022-10-22T14:17:12;1.00;;;0.22;;
56039;SDS011;43937;41.366;2.072;2022-10-22T14:19:44;0.43;;;0.35;;
56039;SDS011;43937;41.366;2.072;2022-10-22T14:22:13;0.60;;;0.30;;
56039;SDS011;43937;41.366;2.072;2022-10-22T14:24:42;1.00;;;0.40;;
56039;SDS011;43937;41.366;2.072;2022-10-22T14:27:09;0.32;;;0.10;;
56039;SDS011;43937;41.366;2.072;2022-10-22T14:29:36;0.43;;;0.30;;
56039;SDS011;43937;41.366;2.072;2022-10-22T14:32:01;3.55;;;1.50;;
56039;SDS011;43937;41.366;2.072;2022-10-22T14:34:27;0.57;;;0.40;;
56039;SDS011;43937;41.366;2.072;2022-10-22T14:36:52;4.10;;;1.02;;
56039;SDS011;43937;41.366;2.072;2022-10-22T14:39:18;0.60;;;0.57;;
56039;SDS011;43937;41.366;2.072;2022-10-22T14:41:45;1.83;;;1.02;;
56039;SDS011;43937;41.366;2.072;2022-10-22T14:44:11;0.60;;;0.52;;
56039;SDS011;43937;41.366;2.072;2022-10-22T14:46:38;1.15;;;0.30;;
56039;SDS011;43937;41.366;2.072;2022-10-22T14:49:06;1.30;;;1.08;;
56039;SDS011;43937;41.366;2.072;2022-10-22T14:51:31;0.30;;;0.28;;
56039;SDS011;43937;41.366;2.072;2022-10-22T14:53:57;1.13;;;0.40;;
56039;SDS011;43937;41.366;2.072;2022-10-22T14:56:22;3.97;;;1.27;;
56039;SDS011;43937;41.366;2.072;2022-10-22T14:58:48;2.83;;;1.30;;
56039;SDS011;43937;41.366;2.072;2022-10-22T15:03:16;1.38;;;0.88;;
56039;SDS011;43937;41.366;2.072;2022-10-22T15:05:42;0.80;;;0.10;;
56039;SDS011;43937;41.366;2.072;2022-10-22T15:08:09;0.75;;;0.50;;
56039;SDS011;43937;41.366;2.072;2022-10-22T15:10:35;1.08;;;0.47;;
56039;SDS011;43937;41.366;2.072;2022-10-22T15:13:01;0.45;;;0.30;;
56039;SDS011;43937;41.366;2.072;2022-10-22T15:15:26;0.93;;;0.38;;
56039;SDS011;43937;41.366;2.072;2022-10-22T15:17:52;0.30;;;0.20;;
56039;SDS011;43937;41.366;2.072;2022-10-22T15:20:17;4.32;;;0.30;;
56039;SDS011;43937;41.366;2.072;2022-10-22T15:22:44;1.48;;;0.40;;
56039;SDS011;43937;41.366;2.072;2022-10-22T15:25:09;1.85;;;0.47;;
56039;SDS011;43937;41.366;2.072;2022-10-22T15:27:37;1.95;;;0.43;;
56039;SDS011;43937;41.366;2.072;2022-10-22T15:30:03;2.10;;;0.93;;
56039;SDS011;43937;41.366;2.072;2022-10-22T15:32:30;2.30;;;1.15;;
56039;SDS011;43937;41.366;2.072;2022-10-22T15:34:57;4.28;;;1.15;;
56039;SDS011;43937;41.366;2.072;2022-10-22T15:37:23;1.67;;;1.13;;
56039;SDS011;43937;41.366;2.072;2022-10-22T15:39:48;2.17;;;1.35;;
56039;SDS011;43937;41.366;2.072;2022-10-22T15:42:14;2.20;;;1.20;;
56039;SDS011;43937;41.366;2.072;2022-10-22T15:44:39;2.35;;;1.20;;
56039;SDS011;43937;41.366;2.072;2022-10-22T15:47:05;3.72;;;1.05;;
56039;SDS011;43937;41.366;2.072;2022-10-22T15:49:32;2.05;;;1.13;;
56039;SDS011;43937;41.366;2.072;2022-10-22T15:52:00;3.85;;;1.52;;
56039;SDS011;43937;41.366;2.072;2022-10-22T15:54:26;2.78;;;1.13;;
56039;SDS011;43937;41.366;2.072;2022-10-22T15:56:53;1.63;;;1.00;;
56039;SDS011;43937;41.366;2.072;2022-10-22T15:59:20;4.95;;;1.10;;
56039;SDS011;43937;41.366;2.072;2022-10-22T16:01:45;1.23;;;0.88;;
56039;SDS011;43937;41.366;2.072;2022-10-22T16:04:11;1.92;;;1.25;;
56039;SDS011;43937;41.366;2.072;2022-10-22T16:06:39;2.05;;;0.82;;
56039;SDS011;43937;41.366;2.072;2022-10-22T16:09:07;1.35;;;0.77;;
56039;SDS011;43937;41.366;2.072;2022-10-22T16:11:35;2.20;;;0.80;;
56039;SDS011;43937;41.366;2.072;2022-10-22T16:14:02;3.08;;;1.55;;
56039;SDS011;43937;41.366;2.072;2022-10-22T16:16:29;2.13;;;1.10;;
56039;SDS011;43937;41.366;2.072;2022-10-22T16:18:56;7.57;;;0.93;;
56039;SDS011;43937;41.366;2.072;2022-10-22T16:21:22;0.85;;;0.60;;
56039;SDS011;43937;41.366;2.072;2022-10-22T16:23:49;1.40;;;0.98;;
56039;SDS011;43937;41.366;2.072;2022-10-22T16:26:15;1.98;;;1.38;;
56039;SDS011;43937;41.366;2.072;2022-10-22T16:28:42;1.58;;;0.45;;
56039;SDS011;43937;41.366;2.072;2022-10-22T16:31:09;2.33;;;0.60;;
56039;SDS011;43937;41.366;2.072;2022-10-22T16:33:36;0.40;;;0.40;;
56039;SDS011;43937;41.366;2.072;2022-10-22T16:36:04;0.38;;;0.38;;
56039;SDS011;43937;41.366;2.072;2022-10-22T16:38:33;0.68;;;0.30;;
56039;SDS011;43937;41.366;2.072;2022-10-22T16:41:06;7.93;;;0.60;;
56039;SDS011;43937;41.366;2.072;2022-10-22T16:43:41;0.15;;;0.15;;
56039;SDS011;43937;41.366;2.072;2022-10-22T16:46:08;2.58;;;0.65;;
56039;SDS011;43937;41.366;2.072;2022-10-22T16:48:34;3.20;;;0.52;;
56039;SDS011;43937;41.366;2.072;2022-10-22T16:51:05;1.25;;;0.40;;
56039;SDS011;43937;41.366;2.072;2022-10-22T16:53:32;1.65;;;0.40;;
56039;SDS011;43937;41.366;2.072;2022-10-22T16:55:58;1.80;;;0.40;;
56039;SDS011;43937;41.366;2.072;2022-10-22T16:58:23;0.50;;;0.30;;
56039;SDS011;43937;41.366;2.072;2022-10-22T17:00:49;1.42;;;0.22;;
56039;SDS011;43937;41.366;2.072;2022-10-22T17:03:15;0.65;;;0.40;;
56039;SDS011;43937;41.366;2.072;2022-10-22T17:05:40;0.15;;;0.13;;